ENT4NH EPKT-LGKO
Flight info
| Callsign | ENT4NH |
|---|---|
| Flight time | 2h 11m |
| Altitude | 35000 |
| Route | BABKO DCT NEPAK DCT VASIS DCT PENEV DCT D062L DCT MARIK |
| Aircraft | B738/M-DFGHIJ1LORVWXY/EB1 |
Departure
| Time | 2026-05-03 22:46 |
|---|---|
| Airport | Katowice Wojciech Korfanty International Airport (EPKT) |
Arrival
| Time | 2026-05-04 00:58 |
|---|---|
| Airport | Kos International Airport "Ippokratis" (LGKO) |
| Time | Latitude | Longitude | Altitude | Speed | Heading |
|---|---|---|---|---|---|
| 2026-05-03 22:19 | 50.47146 | 19.08343 | 1013 ft | 0 kts | 180° |
| 2026-05-03 22:37 | 50.47148 | 19.08343 | 1016 ft | 1 kts | 180° |
| 2026-05-03 22:37 | 50.47165 | 19.08343 | 1019 ft | 3 kts | 181° |
| 2026-05-03 22:38 | 50.47185 | 19.08344 | 1016 ft | 3 kts | 182° |
| 2026-05-03 22:38 | 50.47206 | 19.08345 | 1019 ft | 3 kts | 175° |
| 2026-05-03 22:38 | 50.47224 | 19.08340 | 1018 ft | 3 kts | 147° |
| 2026-05-03 22:38 | 50.47233 | 19.08329 | 1016 ft | 1 kts | 93° |
| 2026-05-03 22:39 | 50.47233 | 19.08326 | 1016 ft | 0 kts | 90° |
| 2026-05-03 22:41 | 50.47233 | 19.08334 | 1016 ft | 4 kts | 90° |
| 2026-05-03 22:41 | 50.47232 | 19.08454 | 1022 ft | 17 kts | 90° |
| 2026-05-03 22:41 | 50.47232 | 19.08683 | 1019 ft | 22 kts | 90° |
| 2026-05-03 22:41 | 50.47232 | 19.08916 | 1020 ft | 21 kts | 90° |
| 2026-05-03 22:42 | 50.47231 | 19.09143 | 1022 ft | 20 kts | 90° |
| 2026-05-03 22:42 | 50.47231 | 19.09364 | 1024 ft | 20 kts | 90° |
| 2026-05-03 22:42 | 50.47230 | 19.09577 | 1026 ft | 19 kts | 90° |
| 2026-05-03 22:42 | 50.47229 | 19.09784 | 1027 ft | 19 kts | 90° |
| 2026-05-03 22:43 | 50.47230 | 19.09983 | 1029 ft | 18 kts | 83° |
| 2026-05-03 22:43 | 50.47297 | 19.10143 | 1030 ft | 17 kts | 51° |
| 2026-05-03 22:43 | 50.47370 | 19.10291 | 1028 ft | 17 kts | 52° |
| 2026-05-03 22:43 | 50.47408 | 19.10366 | 1029 ft | 0 kts | 51° |
| 2026-05-03 22:44 | 50.47428 | 19.10405 | 1031 ft | 11 kts | 50° |
| 2026-05-03 22:45 | 50.47533 | 19.10446 | 1032 ft | 17 kts | 359° |
| 2026-05-03 22:45 | 50.47595 | 19.10391 | 1032 ft | 11 kts | 273° |
| 2026-05-03 22:45 | 50.47597 | 19.10305 | 1031 ft | 8 kts | 271° |
| 2026-05-03 22:45 | 50.47597 | 19.09929 | 1028 ft | 70 kts | 270° |
| 2026-05-03 22:46 | 50.47599 | 19.08810 | 1020 ft | 134 kts | 271° |
| 2026-05-03 22:46 | 50.47608 | 19.07077 | 1136 ft | 173 kts | 267° |
| 2026-05-03 22:46 | 50.47583 | 19.05172 | 1776 ft | 179 kts | 264° |
| 2026-05-03 22:46 | 50.47529 | 19.03162 | 2441 ft | 185 kts | 262° |
| 2026-05-03 22:47 | 50.47479 | 19.01115 | 3075 ft | 199 kts | 264° |
| 2026-05-03 22:47 | 50.47468 | 18.98835 | 3393 ft | 219 kts | 263° |
| 2026-05-03 22:47 | 50.46977 | 18.96529 | 3620 ft | 234 kts | 230° |
| 2026-05-03 22:47 | 50.45811 | 18.94760 | 4260 ft | 231 kts | 215° |
| 2026-05-03 22:48 | 50.44344 | 18.93646 | 4717 ft | 247 kts | 186° |
| 2026-05-03 22:48 | 50.42584 | 18.93616 | 5265 ft | 259 kts | 178° |
| 2026-05-03 22:48 | 50.40747 | 18.93685 | 5987 ft | 266 kts | 178° |
| 2026-05-03 22:48 | 50.38875 | 18.93731 | 6756 ft | 271 kts | 179° |
| 2026-05-03 22:49 | 50.36970 | 18.93747 | 7512 ft | 275 kts | 179° |
| 2026-05-03 22:49 | 50.35044 | 18.93747 | 8275 ft | 279 kts | 179° |
| 2026-05-03 22:49 | 50.33112 | 18.93760 | 9004 ft | 283 kts | 174° |
| 2026-05-03 22:49 | 50.31198 | 18.94650 | 9750 ft | 285 kts | 153° |
| 2026-05-03 22:50 | 50.29413 | 18.96023 | 10430 ft | 291 kts | 152° |
| 2026-05-03 22:50 | 50.27533 | 18.97516 | 10625 ft | 315 kts | 152° |
| 2026-05-03 22:50 | 50.25509 | 18.99115 | 10834 ft | 336 kts | 152° |
| 2026-05-03 22:50 | 50.23405 | 19.00755 | 11321 ft | 346 kts | 152° |
| 2026-05-03 22:51 | 50.21223 | 19.02431 | 12008 ft | 350 kts | 152° |
| 2026-05-03 22:51 | 50.19024 | 19.04104 | 12713 ft | 354 kts | 152° |
| 2026-05-03 22:51 | 50.16790 | 19.05790 | 13401 ft | 358 kts | 152° |
| 2026-05-03 22:51 | 50.14530 | 19.07489 | 14053 ft | 363 kts | 152° |
| 2026-05-03 22:52 | 50.12247 | 19.09200 | 14658 ft | 367 kts | 152° |
| 2026-05-03 22:52 | 50.09928 | 19.10934 | 15282 ft | 371 kts | 152° |
| 2026-05-03 22:52 | 50.07594 | 19.12676 | 15901 ft | 375 kts | 152° |
| 2026-05-03 22:52 | 50.05227 | 19.14441 | 16503 ft | 379 kts | 152° |
| 2026-05-03 22:53 | 50.02841 | 19.16218 | 17107 ft | 383 kts | 152° |
| 2026-05-03 22:53 | 50.00422 | 19.18018 | 17710 ft | 387 kts | 152° |
| 2026-05-03 22:53 | 49.97977 | 19.19835 | 18295 ft | 391 kts | 152° |
| 2026-05-03 22:53 | 49.95507 | 19.21668 | 18817 ft | 395 kts | 152° |
| 2026-05-03 22:54 | 49.93046 | 19.23492 | 19341 ft | 398 kts | 152° |
| 2026-05-03 22:54 | 49.90540 | 19.25348 | 19875 ft | 401 kts | 152° |
| 2026-05-03 22:54 | 49.88012 | 19.27218 | 20390 ft | 404 kts | 152° |
| 2026-05-03 22:54 | 49.85454 | 19.29108 | 20906 ft | 408 kts | 152° |
| 2026-05-03 22:55 | 49.82884 | 19.31004 | 21416 ft | 411 kts | 152° |
| 2026-05-03 22:55 | 49.80295 | 19.32913 | 21921 ft | 414 kts | 152° |
| 2026-05-03 22:55 | 49.77672 | 19.34844 | 22420 ft | 417 kts | 152° |
| 2026-05-03 22:55 | 49.75042 | 19.36778 | 22894 ft | 420 kts | 152° |
| 2026-05-03 22:56 | 49.72390 | 19.38726 | 23339 ft | 424 kts | 152° |
| 2026-05-03 22:56 | 49.69703 | 19.40697 | 23793 ft | 427 kts | 152° |
| 2026-05-03 22:56 | 49.67051 | 19.42641 | 24185 ft | 430 kts | 152° |
| 2026-05-03 22:56 | 49.64337 | 19.44627 | 24582 ft | 432 kts | 152° |
| 2026-05-03 22:57 | 49.61606 | 19.46646 | 24947 ft | 435 kts | 150° |
| 2026-05-03 22:57 | 49.59030 | 19.49066 | 25343 ft | 434 kts | 143° |
| 2026-05-03 22:57 | 49.56555 | 19.51734 | 25725 ft | 436 kts | 142° |
| 2026-05-03 22:57 | 49.54076 | 19.54464 | 26072 ft | 439 kts | 141° |
| 2026-05-03 22:58 | 49.51587 | 19.57211 | 26428 ft | 441 kts | 142° |
| 2026-05-03 22:58 | 49.49082 | 19.59960 | 26794 ft | 444 kts | 142° |
| 2026-05-03 22:58 | 49.46556 | 19.62713 | 27138 ft | 446 kts | 142° |
| 2026-05-03 22:58 | 49.44009 | 19.65470 | 27473 ft | 449 kts | 142° |
| 2026-05-03 22:59 | 49.41443 | 19.68236 | 27806 ft | 451 kts | 142° |
| 2026-05-03 22:59 | 49.38863 | 19.71007 | 28138 ft | 454 kts | 142° |
| 2026-05-03 22:59 | 49.36264 | 19.73792 | 28468 ft | 456 kts | 142° |
| 2026-05-03 22:59 | 49.33650 | 19.76590 | 28786 ft | 459 kts | 142° |
| 2026-05-03 23:00 | 49.31055 | 19.79364 | 29101 ft | 461 kts | 142° |
| 2026-05-03 23:00 | 49.28422 | 19.82175 | 29395 ft | 463 kts | 142° |
| 2026-05-03 23:00 | 49.25765 | 19.85010 | 29675 ft | 466 kts | 142° |
| 2026-05-03 23:00 | 49.23088 | 19.87863 | 29955 ft | 468 kts | 142° |
| 2026-05-03 23:01 | 49.20404 | 19.90717 | 30262 ft | 469 kts | 142° |
| 2026-05-03 23:01 | 49.17726 | 19.93559 | 30577 ft | 469 kts | 142° |
| 2026-05-03 23:01 | 49.15043 | 19.96403 | 30910 ft | 468 kts | 142° |
| 2026-05-03 23:01 | 49.12375 | 19.99229 | 31234 ft | 467 kts | 142° |
| 2026-05-03 23:02 | 49.09703 | 20.02055 | 31552 ft | 466 kts | 142° |
| 2026-05-03 23:02 | 49.07047 | 20.04862 | 31868 ft | 466 kts | 142° |
| 2026-05-03 23:02 | 49.04376 | 20.07681 | 32186 ft | 465 kts | 142° |
| 2026-05-03 23:02 | 49.01713 | 20.10487 | 32509 ft | 465 kts | 142° |
| 2026-05-03 23:03 | 48.99055 | 20.13285 | 32817 ft | 464 kts | 142° |
| 2026-05-03 23:03 | 48.96398 | 20.16078 | 33137 ft | 463 kts | 142° |
| 2026-05-03 23:03 | 48.93743 | 20.18865 | 33458 ft | 463 kts | 142° |
| 2026-05-03 23:03 | 48.91123 | 20.21611 | 33756 ft | 462 kts | 142° |
| 2026-05-03 23:04 | 48.88468 | 20.24391 | 34054 ft | 461 kts | 142° |
| 2026-05-03 23:04 | 48.85821 | 20.27160 | 34320 ft | 461 kts | 142° |
| 2026-05-03 23:04 | 48.83181 | 20.29917 | 34557 ft | 461 kts | 142° |
| 2026-05-03 23:04 | 48.80539 | 20.32672 | 34765 ft | 460 kts | 142° |
| 2026-05-03 23:05 | 48.77900 | 20.35420 | 34997 ft | 460 kts | 142° |
| 2026-05-03 23:05 | 48.75262 | 20.38164 | 35163 ft | 461 kts | 142° |
| 2026-05-03 23:05 | 48.72607 | 20.40925 | 35134 ft | 463 kts | 142° |
| 2026-05-03 23:06 | 48.68196 | 20.45500 | 35140 ft | 460 kts | 142° |
| 2026-05-03 23:06 | 48.62936 | 20.50942 | 35145 ft | 456 kts | 142° |
| 2026-05-03 23:07 | 48.57467 | 20.55826 | 35155 ft | 457 kts | 150° |
| 2026-05-03 23:07 | 48.51746 | 20.60014 | 35139 ft | 457 kts | 151° |
| 2026-05-03 23:08 | 48.46008 | 20.64159 | 35153 ft | 457 kts | 150° |
| 2026-05-03 23:08 | 48.40313 | 20.68336 | 35144 ft | 459 kts | 150° |
| 2026-05-03 23:09 | 48.34564 | 20.72585 | 35146 ft | 461 kts | 150° |
| 2026-05-03 23:09 | 48.28793 | 20.76852 | 35147 ft | 463 kts | 150° |
| 2026-05-03 23:10 | 48.22994 | 20.81127 | 35148 ft | 465 kts | 150° |
| 2026-05-03 23:10 | 48.17163 | 20.85413 | 35145 ft | 467 kts | 150° |
| 2026-05-03 23:11 | 48.11355 | 20.89671 | 35144 ft | 468 kts | 150° |
| 2026-05-03 23:11 | 48.05500 | 20.93951 | 35136 ft | 468 kts | 150° |
| 2026-05-03 23:12 | 47.99648 | 20.98218 | 35137 ft | 468 kts | 150° |
| 2026-05-03 23:12 | 47.93791 | 21.02477 | 35137 ft | 467 kts | 150° |
| 2026-05-03 23:13 | 47.87963 | 21.06706 | 35137 ft | 466 kts | 150° |
| 2026-05-03 23:13 | 47.82137 | 21.10922 | 35134 ft | 464 kts | 150° |
| 2026-05-03 23:14 | 47.76329 | 21.15115 | 35138 ft | 463 kts | 150° |
| 2026-05-03 23:14 | 47.70576 | 21.19259 | 35136 ft | 462 kts | 150° |
| 2026-05-03 23:15 | 47.64780 | 21.23422 | 35143 ft | 461 kts | 150° |
| 2026-05-03 23:15 | 47.59006 | 21.27560 | 35145 ft | 461 kts | 150° |
| 2026-05-03 23:16 | 47.53218 | 21.31698 | 35151 ft | 461 kts | 150° |
| 2026-05-03 23:16 | 47.47435 | 21.35822 | 35155 ft | 461 kts | 150° |
| 2026-05-03 23:17 | 47.41688 | 21.39910 | 35156 ft | 462 kts | 150° |
| 2026-05-03 23:17 | 47.35854 | 21.44051 | 35153 ft | 462 kts | 150° |
| 2026-05-03 23:18 | 47.30075 | 21.48141 | 35154 ft | 463 kts | 150° |
| 2026-05-03 23:18 | 47.24255 | 21.52251 | 35150 ft | 464 kts | 150° |
| 2026-05-03 23:19 | 47.18421 | 21.56360 | 35152 ft | 465 kts | 150° |
| 2026-05-03 23:19 | 47.12587 | 21.60460 | 35153 ft | 465 kts | 150° |
| 2026-05-03 23:20 | 47.06739 | 21.64559 | 35159 ft | 466 kts | 150° |
| 2026-05-03 23:20 | 47.00884 | 21.68653 | 35158 ft | 466 kts | 150° |
| 2026-05-03 23:21 | 46.95073 | 21.72707 | 35127 ft | 464 kts | 152° |
| 2026-05-03 23:21 | 46.89243 | 21.76762 | 35148 ft | 463 kts | 152° |
| 2026-05-03 23:22 | 46.80520 | 21.82815 | 35160 ft | 463 kts | 152° |
| 2026-05-03 23:22 | 46.74709 | 21.86834 | 35160 ft | 462 kts | 152° |
| 2026-05-03 23:23 | 46.68890 | 21.90850 | 35164 ft | 462 kts | 152° |
| 2026-05-03 23:23 | 46.63066 | 21.94859 | 35164 ft | 462 kts | 152° |
| 2026-05-03 23:24 | 46.57247 | 21.98855 | 35165 ft | 462 kts | 152° |
| 2026-05-03 23:24 | 46.51472 | 22.02812 | 35167 ft | 462 kts | 152° |
| 2026-05-03 23:25 | 46.45614 | 22.06816 | 35169 ft | 462 kts | 151° |
| 2026-05-03 23:25 | 46.39832 | 22.10759 | 35166 ft | 462 kts | 151° |
| 2026-05-03 23:26 | 46.34003 | 22.14724 | 35170 ft | 462 kts | 151° |
| 2026-05-03 23:26 | 46.28168 | 22.18684 | 35176 ft | 462 kts | 151° |
| 2026-05-03 23:27 | 46.22348 | 22.22624 | 35176 ft | 463 kts | 151° |
| 2026-05-03 23:27 | 46.16510 | 22.26569 | 35179 ft | 463 kts | 151° |
| 2026-05-03 23:28 | 46.10653 | 22.30516 | 35172 ft | 464 kts | 151° |
| 2026-05-03 23:28 | 46.04834 | 22.34429 | 35188 ft | 464 kts | 151° |
| 2026-05-03 23:29 | 45.98986 | 22.38353 | 35183 ft | 464 kts | 151° |
| 2026-05-03 23:29 | 45.93061 | 22.42103 | 35185 ft | 467 kts | 155° |
| 2026-05-03 23:30 | 45.86920 | 22.45221 | 35185 ft | 468 kts | 157° |
| 2026-05-03 23:30 | 45.80747 | 22.48221 | 35191 ft | 469 kts | 157° |
| 2026-05-03 23:31 | 45.74572 | 22.51265 | 35175 ft | 469 kts | 157° |
| 2026-05-03 23:31 | 45.68404 | 22.54346 | 35189 ft | 469 kts | 156° |
| 2026-05-03 23:32 | 45.62286 | 22.57409 | 35193 ft | 469 kts | 156° |
| 2026-05-03 23:32 | 45.56112 | 22.60494 | 35193 ft | 470 kts | 156° |
| 2026-05-03 23:33 | 45.49931 | 22.63573 | 35197 ft | 471 kts | 156° |
| 2026-05-03 23:33 | 45.44101 | 22.66470 | 35200 ft | 472 kts | 156° |
| 2026-05-03 23:34 | 45.37867 | 22.69561 | 35197 ft | 473 kts | 156° |
| 2026-05-03 23:34 | 45.31631 | 22.72645 | 35190 ft | 475 kts | 156° |
| 2026-05-03 23:35 | 45.25388 | 22.75725 | 35190 ft | 475 kts | 156° |
| 2026-05-03 23:35 | 45.19175 | 22.78783 | 35182 ft | 475 kts | 156° |
| 2026-05-03 23:36 | 45.12923 | 22.81854 | 35182 ft | 475 kts | 156° |
| 2026-05-03 23:36 | 45.06677 | 22.84914 | 35185 ft | 475 kts | 156° |
| 2026-05-03 23:37 | 45.00468 | 22.87949 | 35174 ft | 475 kts | 156° |
| 2026-05-03 23:37 | 44.94202 | 22.91006 | 35170 ft | 475 kts | 156° |
| 2026-05-03 23:38 | 44.87937 | 22.94054 | 35173 ft | 476 kts | 156° |
| 2026-05-03 23:38 | 44.81698 | 22.97083 | 35170 ft | 476 kts | 156° |
| 2026-05-03 23:39 | 44.75423 | 23.00122 | 35174 ft | 476 kts | 156° |
| 2026-05-03 23:39 | 44.69156 | 23.03151 | 35169 ft | 477 kts | 156° |
| 2026-05-03 23:40 | 44.62864 | 23.06185 | 35177 ft | 477 kts | 156° |
| 2026-05-03 23:40 | 44.56597 | 23.09200 | 35185 ft | 478 kts | 156° |
| 2026-05-03 23:41 | 44.50300 | 23.12222 | 35181 ft | 479 kts | 156° |
| 2026-05-03 23:41 | 44.43965 | 23.15255 | 35177 ft | 480 kts | 156° |
| 2026-05-03 23:42 | 44.37677 | 23.18259 | 35168 ft | 481 kts | 156° |
| 2026-05-03 23:42 | 44.31310 | 23.21294 | 35167 ft | 481 kts | 156° |
| 2026-05-03 23:43 | 44.25017 | 23.24287 | 35169 ft | 481 kts | 156° |
| 2026-05-03 23:43 | 44.18660 | 23.27303 | 35173 ft | 481 kts | 156° |
| 2026-05-03 23:44 | 44.12316 | 23.30306 | 35173 ft | 481 kts | 156° |
| 2026-05-03 23:44 | 44.06031 | 23.33275 | 35181 ft | 480 kts | 156° |
| 2026-05-03 23:45 | 43.99699 | 23.36259 | 35182 ft | 480 kts | 156° |
| 2026-05-03 23:45 | 43.93378 | 23.39231 | 35177 ft | 480 kts | 156° |
| 2026-05-03 23:46 | 43.87058 | 23.42196 | 35183 ft | 479 kts | 156° |
| 2026-05-03 23:46 | 43.80731 | 23.45158 | 35187 ft | 479 kts | 156° |
| 2026-05-03 23:47 | 43.74409 | 23.48111 | 35190 ft | 478 kts | 156° |
| 2026-05-03 23:47 | 43.68104 | 23.51049 | 35192 ft | 478 kts | 157° |
| 2026-05-03 23:48 | 43.61843 | 23.53961 | 35195 ft | 477 kts | 157° |
| 2026-05-03 23:48 | 43.55564 | 23.56874 | 35201 ft | 476 kts | 157° |
| 2026-05-03 23:49 | 43.49290 | 23.59779 | 35205 ft | 476 kts | 157° |
| 2026-05-03 23:49 | 43.43015 | 23.62678 | 35208 ft | 475 kts | 157° |
| 2026-05-03 23:50 | 43.37772 | 23.65095 | 35206 ft | 474 kts | 157° |
| 2026-05-03 23:50 | 43.31396 | 23.68029 | 35216 ft | 474 kts | 157° |
| 2026-05-03 23:51 | 43.25149 | 23.70897 | 35215 ft | 473 kts | 158° |
| 2026-05-03 23:51 | 43.19962 | 23.73274 | 35211 ft | 473 kts | 158° |
| 2026-05-03 23:52 | 43.12713 | 23.76589 | 35223 ft | 471 kts | 158° |
| 2026-05-03 23:52 | 43.07499 | 23.78969 | 35226 ft | 471 kts | 158° |
| 2026-05-03 23:53 | 43.01336 | 23.81850 | 35219 ft | 469 kts | 155° |
| 2026-05-03 23:53 | 42.95282 | 23.85142 | 35215 ft | 468 kts | 154° |
| 2026-05-03 23:54 | 42.89265 | 23.88545 | 35227 ft | 467 kts | 154° |
| 2026-05-03 23:54 | 42.83230 | 23.91918 | 35211 ft | 468 kts | 154° |
| 2026-05-03 23:55 | 42.77222 | 23.95231 | 35219 ft | 469 kts | 155° |
| 2026-05-03 23:55 | 42.71166 | 23.98546 | 35210 ft | 469 kts | 155° |
| 2026-05-03 23:56 | 42.65103 | 24.01857 | 35214 ft | 469 kts | 155° |
| 2026-05-03 23:56 | 42.59046 | 24.05159 | 35209 ft | 469 kts | 155° |
| 2026-05-03 23:57 | 42.52985 | 24.08457 | 35198 ft | 469 kts | 155° |
| 2026-05-03 23:57 | 42.46917 | 24.11753 | 35197 ft | 470 kts | 155° |
| 2026-05-03 23:58 | 42.40853 | 24.15040 | 35201 ft | 470 kts | 155° |
| 2026-05-03 23:58 | 42.34805 | 24.18310 | 35194 ft | 470 kts | 155° |
| 2026-05-03 23:59 | 42.28690 | 24.21610 | 35191 ft | 470 kts | 155° |
| 2026-05-03 23:59 | 42.22638 | 24.24869 | 35188 ft | 471 kts | 155° |
| 2026-05-04 00:00 | 42.16543 | 24.28145 | 35184 ft | 471 kts | 155° |
| 2026-05-04 00:00 | 42.10465 | 24.31404 | 35188 ft | 471 kts | 155° |
| 2026-05-04 00:01 | 42.04374 | 24.34664 | 35190 ft | 471 kts | 156° |
| 2026-05-04 00:01 | 41.98272 | 24.37923 | 35199 ft | 471 kts | 156° |
| 2026-05-04 00:02 | 41.92231 | 24.41143 | 35183 ft | 470 kts | 156° |
| 2026-05-04 00:02 | 41.86154 | 24.44376 | 35190 ft | 469 kts | 156° |
| 2026-05-04 00:03 | 41.80086 | 24.47596 | 35205 ft | 469 kts | 156° |
| 2026-05-04 00:03 | 41.74028 | 24.50806 | 35192 ft | 469 kts | 156° |
| 2026-05-04 00:04 | 41.67967 | 24.54010 | 35203 ft | 468 kts | 156° |
| 2026-05-04 00:04 | 41.61914 | 24.57203 | 35197 ft | 468 kts | 156° |
| 2026-05-04 00:05 | 41.55851 | 24.60396 | 35185 ft | 467 kts | 156° |
| 2026-05-04 00:05 | 41.49808 | 24.63571 | 35191 ft | 466 kts | 156° |
| 2026-05-04 00:06 | 41.43806 | 24.66719 | 35181 ft | 466 kts | 156° |
| 2026-05-04 00:06 | 41.37776 | 24.69875 | 35175 ft | 466 kts | 156° |
| 2026-05-04 00:07 | 41.31741 | 24.73027 | 35177 ft | 465 kts | 157° |
| 2026-05-04 00:07 | 41.25718 | 24.76167 | 35168 ft | 465 kts | 157° |
| 2026-05-04 00:08 | 41.19698 | 24.79299 | 35163 ft | 465 kts | 157° |
| 2026-05-04 00:08 | 41.13672 | 24.82428 | 35150 ft | 465 kts | 157° |
| 2026-05-04 00:09 | 41.07641 | 24.85553 | 35142 ft | 465 kts | 157° |
| 2026-05-04 00:09 | 41.01604 | 24.88675 | 35132 ft | 466 kts | 157° |
| 2026-05-04 00:10 | 40.95568 | 24.91791 | 35133 ft | 466 kts | 157° |
| 2026-05-04 00:10 | 40.89524 | 24.94904 | 35132 ft | 466 kts | 157° |
| 2026-05-04 00:11 | 40.83512 | 24.97995 | 35133 ft | 467 kts | 157° |
| 2026-05-04 00:11 | 40.77457 | 25.01102 | 35127 ft | 467 kts | 158° |
| 2026-05-04 00:12 | 40.71396 | 25.04206 | 35128 ft | 467 kts | 158° |
| 2026-05-04 00:12 | 40.65335 | 25.07304 | 35128 ft | 467 kts | 158° |
| 2026-05-04 00:13 | 40.59264 | 25.10401 | 35132 ft | 467 kts | 158° |
| 2026-05-04 00:13 | 40.53197 | 25.13490 | 35126 ft | 467 kts | 158° |
| 2026-05-04 00:14 | 40.47139 | 25.16568 | 35128 ft | 467 kts | 158° |
| 2026-05-04 00:14 | 40.41069 | 25.19647 | 35126 ft | 467 kts | 158° |
| 2026-05-04 00:15 | 40.35048 | 25.22694 | 35129 ft | 467 kts | 158° |
| 2026-05-04 00:15 | 40.28973 | 25.25763 | 35123 ft | 467 kts | 158° |
| 2026-05-04 00:16 | 40.22895 | 25.28828 | 35121 ft | 467 kts | 158° |
| 2026-05-04 00:16 | 40.16826 | 25.31882 | 35116 ft | 467 kts | 158° |
| 2026-05-04 00:17 | 40.10743 | 25.34937 | 35114 ft | 468 kts | 158° |
| 2026-05-04 00:17 | 40.04705 | 25.37964 | 35114 ft | 468 kts | 158° |
| 2026-05-04 00:18 | 39.98622 | 25.41008 | 35106 ft | 468 kts | 158° |
| 2026-05-04 00:18 | 39.92531 | 25.44050 | 35107 ft | 469 kts | 158° |
| 2026-05-04 00:19 | 39.86441 | 25.47086 | 35110 ft | 469 kts | 158° |
| 2026-05-04 00:19 | 39.80338 | 25.50122 | 35109 ft | 469 kts | 158° |
| 2026-05-04 00:20 | 39.74242 | 25.53149 | 35110 ft | 469 kts | 158° |
| 2026-05-04 00:20 | 39.68174 | 25.56157 | 35110 ft | 469 kts | 158° |
| 2026-05-04 00:21 | 39.62065 | 25.59179 | 35109 ft | 470 kts | 159° |
| 2026-05-04 00:21 | 39.55933 | 25.62207 | 35108 ft | 471 kts | 159° |
| 2026-05-04 00:22 | 39.49788 | 25.65235 | 35106 ft | 473 kts | 159° |
| 2026-05-04 00:22 | 39.43648 | 25.68255 | 35102 ft | 475 kts | 159° |
| 2026-05-04 00:23 | 39.37459 | 25.71294 | 35099 ft | 477 kts | 159° |
| 2026-05-04 00:23 | 39.31251 | 25.74336 | 35091 ft | 475 kts | 159° |
| 2026-05-04 00:24 | 39.25079 | 25.77355 | 35088 ft | 474 kts | 159° |
| 2026-05-04 00:24 | 39.18922 | 25.80361 | 35087 ft | 472 kts | 159° |
| 2026-05-04 00:25 | 39.12786 | 25.83351 | 35070 ft | 470 kts | 159° |
| 2026-05-04 00:25 | 39.06697 | 25.86311 | 35080 ft | 466 kts | 159° |
| 2026-05-04 00:26 | 39.00606 | 25.89269 | 35093 ft | 470 kts | 159° |
| 2026-05-04 00:26 | 38.94470 | 25.92242 | 35084 ft | 473 kts | 159° |
| 2026-05-04 00:27 | 38.88289 | 25.95232 | 35088 ft | 475 kts | 159° |
| 2026-05-04 00:27 | 38.82089 | 25.98225 | 35071 ft | 477 kts | 160° |
| 2026-05-04 00:28 | 38.75906 | 26.01205 | 35073 ft | 478 kts | 160° |
| 2026-05-04 00:28 | 38.69685 | 26.04198 | 35055 ft | 475 kts | 160° |
| 2026-05-04 00:29 | 38.63513 | 26.07162 | 34987 ft | 474 kts | 160° |
| 2026-05-04 00:29 | 38.60391 | 26.08659 | 34605 ft | 472 kts | 160° |
| 2026-05-04 00:29 | 38.57382 | 26.10148 | 34220 ft | 468 kts | 158° |
| 2026-05-04 00:30 | 38.54383 | 26.11724 | 33776 ft | 464 kts | 157° |
| 2026-05-04 00:30 | 38.51417 | 26.13326 | 33332 ft | 460 kts | 157° |
| 2026-05-04 00:30 | 38.48483 | 26.14920 | 32889 ft | 455 kts | 157° |
| 2026-05-04 00:30 | 38.45602 | 26.16481 | 32498 ft | 445 kts | 157° |
| 2026-05-04 00:31 | 38.42767 | 26.18007 | 32104 ft | 441 kts | 157° |
| 2026-05-04 00:31 | 38.39947 | 26.19516 | 31705 ft | 437 kts | 156° |
| 2026-05-04 00:31 | 38.37155 | 26.21004 | 31314 ft | 432 kts | 156° |
| 2026-05-04 00:31 | 38.34382 | 26.22476 | 30928 ft | 428 kts | 156° |
| 2026-05-04 00:32 | 38.31650 | 26.23924 | 30532 ft | 424 kts | 156° |
| 2026-05-04 00:32 | 38.28947 | 26.25355 | 30154 ft | 414 kts | 156° |
| 2026-05-04 00:32 | 38.26358 | 26.26723 | 29743 ft | 402 kts | 156° |
| 2026-05-04 00:32 | 38.23814 | 26.28066 | 29366 ft | 390 kts | 155° |
| 2026-05-04 00:33 | 38.21326 | 26.29379 | 29007 ft | 384 kts | 155° |
| 2026-05-04 00:33 | 38.16437 | 26.31962 | 28261 ft | 377 kts | 156° |
| 2026-05-04 00:33 | 38.13999 | 26.33249 | 27892 ft | 381 kts | 156° |
| 2026-05-04 00:34 | 38.11555 | 26.34538 | 27514 ft | 386 kts | 156° |
| 2026-05-04 00:34 | 38.09078 | 26.35843 | 27133 ft | 383 kts | 156° |
| 2026-05-04 00:34 | 38.06621 | 26.37134 | 26759 ft | 379 kts | 156° |
| 2026-05-04 00:34 | 38.04190 | 26.38413 | 26388 ft | 377 kts | 156° |
| 2026-05-04 00:35 | 38.01784 | 26.39678 | 26023 ft | 374 kts | 156° |
| 2026-05-04 00:35 | 37.99386 | 26.40937 | 25667 ft | 372 kts | 156° |
| 2026-05-04 00:35 | 37.96990 | 26.42193 | 25306 ft | 371 kts | 156° |
| 2026-05-04 00:35 | 37.94611 | 26.43440 | 24948 ft | 370 kts | 156° |
| 2026-05-04 00:36 | 37.92232 | 26.44686 | 24588 ft | 370 kts | 156° |
| 2026-05-04 00:36 | 37.89855 | 26.45930 | 24230 ft | 369 kts | 156° |
| 2026-05-04 00:36 | 37.87483 | 26.47171 | 23874 ft | 367 kts | 156° |
| 2026-05-04 00:36 | 37.85163 | 26.48384 | 23509 ft | 365 kts | 157° |
| 2026-05-04 00:37 | 37.82818 | 26.49609 | 23087 ft | 363 kts | 157° |
| 2026-05-04 00:37 | 37.80483 | 26.50828 | 22700 ft | 361 kts | 157° |
| 2026-05-04 00:37 | 37.78165 | 26.52037 | 22338 ft | 358 kts | 157° |
| 2026-05-04 00:37 | 37.75865 | 26.53235 | 21971 ft | 358 kts | 157° |
| 2026-05-04 00:38 | 37.73561 | 26.54436 | 21607 ft | 358 kts | 157° |
| 2026-05-04 00:38 | 37.71282 | 26.55622 | 21250 ft | 359 kts | 157° |
| 2026-05-04 00:38 | 37.68946 | 26.56838 | 20884 ft | 359 kts | 157° |
| 2026-05-04 00:38 | 37.66640 | 26.58037 | 20531 ft | 359 kts | 157° |
| 2026-05-04 00:39 | 37.64363 | 26.59220 | 20175 ft | 359 kts | 157° |
| 2026-05-04 00:39 | 37.62800 | 26.60032 | 19929 ft | 360 kts | 157° |
| 2026-05-04 00:39 | 37.60482 | 26.61235 | 19570 ft | 361 kts | 157° |
| 2026-05-04 00:39 | 37.57395 | 26.62836 | 19090 ft | 361 kts | 157° |
| 2026-05-04 00:40 | 37.55080 | 26.64035 | 18724 ft | 360 kts | 157° |
| 2026-05-04 00:40 | 37.53513 | 26.64846 | 18477 ft | 359 kts | 157° |
| 2026-05-04 00:40 | 37.51199 | 26.66044 | 18087 ft | 359 kts | 157° |
| 2026-05-04 00:40 | 37.48922 | 26.67221 | 17693 ft | 358 kts | 157° |
| 2026-05-04 00:41 | 37.46629 | 26.68406 | 17326 ft | 356 kts | 157° |
| 2026-05-04 00:41 | 37.44338 | 26.69590 | 16961 ft | 354 kts | 157° |
| 2026-05-04 00:41 | 37.42061 | 26.70765 | 16605 ft | 352 kts | 157° |
| 2026-05-04 00:41 | 37.39798 | 26.71933 | 16257 ft | 351 kts | 157° |
| 2026-05-04 00:42 | 37.37544 | 26.73094 | 15902 ft | 349 kts | 157° |
| 2026-05-04 00:42 | 37.35301 | 26.74250 | 15557 ft | 348 kts | 157° |
| 2026-05-04 00:42 | 37.33062 | 26.75403 | 15205 ft | 347 kts | 157° |
| 2026-05-04 00:42 | 37.30827 | 26.76552 | 14862 ft | 346 kts | 157° |
| 2026-05-04 00:43 | 37.28603 | 26.77696 | 14514 ft | 345 kts | 157° |
| 2026-05-04 00:43 | 37.26380 | 26.78839 | 14157 ft | 345 kts | 157° |
| 2026-05-04 00:43 | 37.24188 | 26.79964 | 13800 ft | 344 kts | 157° |
| 2026-05-04 00:43 | 37.21969 | 26.81103 | 13404 ft | 344 kts | 157° |
| 2026-05-04 00:44 | 37.19758 | 26.82237 | 13047 ft | 343 kts | 157° |
| 2026-05-04 00:44 | 37.17557 | 26.83365 | 12693 ft | 341 kts | 157° |
| 2026-05-04 00:44 | 37.15385 | 26.84478 | 12328 ft | 341 kts | 157° |
| 2026-05-04 00:44 | 37.13199 | 26.85597 | 11972 ft | 339 kts | 157° |
| 2026-05-04 00:45 | 37.11015 | 26.86714 | 11626 ft | 338 kts | 157° |
| 2026-05-04 00:45 | 37.08840 | 26.87826 | 11284 ft | 337 kts | 157° |
| 2026-05-04 00:45 | 37.06672 | 26.88934 | 10931 ft | 336 kts | 157° |
| 2026-05-04 00:45 | 37.04510 | 26.90038 | 10589 ft | 335 kts | 157° |
| 2026-05-04 00:46 | 37.02348 | 26.91142 | 10277 ft | 333 kts | 157° |
| 2026-05-04 00:46 | 37.00250 | 26.92211 | 10127 ft | 326 kts | 157° |
| 2026-05-04 00:46 | 36.98172 | 26.93270 | 9946 ft | 320 kts | 157° |
| 2026-05-04 00:46 | 36.96113 | 26.94319 | 9621 ft | 319 kts | 157° |
| 2026-05-04 00:47 | 36.94067 | 26.95361 | 9273 ft | 315 kts | 158° |
| 2026-05-04 00:47 | 36.92060 | 26.96382 | 8956 ft | 309 kts | 157° |
| 2026-05-04 00:47 | 36.90066 | 26.97396 | 8659 ft | 307 kts | 157° |
| 2026-05-04 00:47 | 36.88079 | 26.98406 | 8339 ft | 306 kts | 157° |
| 2026-05-04 00:48 | 36.86108 | 26.99408 | 8050 ft | 306 kts | 157° |
| 2026-05-04 00:48 | 36.84162 | 27.00396 | 7741 ft | 305 kts | 157° |
| 2026-05-04 00:48 | 36.82197 | 27.01393 | 7427 ft | 305 kts | 157° |
| 2026-05-04 00:48 | 36.80222 | 27.02395 | 7115 ft | 305 kts | 157° |
| 2026-05-04 00:49 | 36.78254 | 27.03392 | 6799 ft | 306 kts | 157° |
| 2026-05-04 00:49 | 36.76267 | 27.04399 | 6419 ft | 308 kts | 157° |
| 2026-05-04 00:49 | 36.74306 | 27.05392 | 6103 ft | 300 kts | 157° |
| 2026-05-04 00:49 | 36.72387 | 27.06363 | 5843 ft | 295 kts | 157° |
| 2026-05-04 00:50 | 36.70493 | 27.07321 | 5602 ft | 293 kts | 156° |
| 2026-05-04 00:50 | 36.68630 | 27.08264 | 5508 ft | 284 kts | 156° |
| 2026-05-04 00:50 | 36.66831 | 27.09172 | 5498 ft | 275 kts | 156° |
| 2026-05-04 00:50 | 36.65060 | 27.10066 | 5409 ft | 274 kts | 156° |
| 2026-05-04 00:51 | 36.63310 | 27.10949 | 5303 ft | 267 kts | 156° |
| 2026-05-04 00:51 | 36.61697 | 27.11949 | 5113 ft | 259 kts | 135° |
| 2026-05-04 00:51 | 36.60664 | 27.13652 | 4975 ft | 241 kts | 103° |
| 2026-05-04 00:51 | 36.60355 | 27.15653 | 4705 ft | 232 kts | 79° |
| 2026-05-04 00:52 | 36.60627 | 27.17578 | 4437 ft | 220 kts | 62° |
| 2026-05-04 00:52 | 36.61220 | 27.19307 | 4182 ft | 212 kts | 45° |
| 2026-05-04 00:52 | 36.62282 | 27.20431 | 3966 ft | 194 kts | 19° |
| 2026-05-04 00:52 | 36.63558 | 27.20788 | 3723 ft | 186 kts | 356° |
| 2026-05-04 00:53 | 36.64763 | 27.20424 | 3539 ft | 178 kts | 333° |
| 2026-05-04 00:53 | 36.65815 | 27.19656 | 3313 ft | 170 kts | 333° |
| 2026-05-04 00:53 | 36.66785 | 27.18943 | 3090 ft | 154 kts | 332° |
| 2026-05-04 00:53 | 36.67672 | 27.18270 | 2915 ft | 147 kts | 332° |
| 2026-05-04 00:54 | 36.68547 | 27.17604 | 2726 ft | 149 kts | 332° |
| 2026-05-04 00:54 | 36.69422 | 27.16924 | 2508 ft | 143 kts | 331° |
| 2026-05-04 00:54 | 36.70227 | 27.16295 | 2332 ft | 130 kts | 331° |
| 2026-05-04 00:54 | 36.70954 | 27.15729 | 2154 ft | 118 kts | 331° |
| 2026-05-04 00:55 | 36.71636 | 27.15199 | 2009 ft | 112 kts | 331° |
| 2026-05-04 00:55 | 36.72304 | 27.14679 | 1859 ft | 115 kts | 331° |
| 2026-05-04 00:55 | 36.72989 | 27.14147 | 1713 ft | 117 kts | 331° |
| 2026-05-04 00:55 | 36.73676 | 27.13612 | 1546 ft | 116 kts | 331° |
| 2026-05-04 00:56 | 36.74361 | 27.13079 | 1405 ft | 116 kts | 331° |
| 2026-05-04 00:56 | 36.75051 | 27.12543 | 1247 ft | 118 kts | 331° |
| 2026-05-04 00:56 | 36.75764 | 27.11986 | 1093 ft | 124 kts | 332° |
| 2026-05-04 00:56 | 36.76494 | 27.11400 | 920 ft | 125 kts | 332° |
| 2026-05-04 00:57 | 36.77217 | 27.10824 | 706 ft | 122 kts | 333° |
| 2026-05-04 00:57 | 36.77936 | 27.10292 | 548 ft | 118 kts | 331° |
| 2026-05-04 00:57 | 36.78620 | 27.09762 | 414 ft | 121 kts | 332° |
| 2026-05-04 00:57 | 36.79278 | 27.09258 | 408 ft | 95 kts | 328° |
| 2026-05-04 00:58 | 36.79713 | 27.08916 | 418 ft | 52 kts | 328° |
| 2026-05-04 00:58 | 36.79944 | 27.08736 | 410 ft | 27 kts | 328° |
| 2026-05-04 00:58 | 36.80093 | 27.08619 | 413 ft | 24 kts | 328° |
| 2026-05-04 00:58 | 36.80232 | 27.08512 | 412 ft | 23 kts | 328° |
| 2026-05-04 00:59 | 36.80350 | 27.08476 | 412 ft | 7 kts | 49° |
| 2026-05-04 00:59 | 36.80350 | 27.08537 | 420 ft | 7 kts | 104° |
| 2026-05-04 00:59 | 36.80347 | 27.08551 | 415 ft | 0 kts | 104° |
| 2026-05-04 00:59 | 36.80346 | 27.08555 | 417 ft | 2 kts | 104° |
| 2026-05-04 01:00 | 36.80338 | 27.08599 | 416 ft | 7 kts | 104° |
| 2026-05-04 01:00 | 36.80324 | 27.08660 | 420 ft | 7 kts | 114° |
| 2026-05-04 01:00 | 36.80282 | 27.08711 | 396 ft | 11 kts | 147° |
| 2026-05-04 01:00 | 36.80209 | 27.08770 | 417 ft | 10 kts | 147° |
| 2026-05-04 01:01 | 36.80150 | 27.08818 | 414 ft | 7 kts | 147° |
| 2026-05-04 01:01 | 36.80142 | 27.08824 | 413 ft | 0 kts | 142° |
| 2026-05-04 01:01 | 36.80145 | 27.08832 | 418 ft | 1 kts | 68° |
| 2026-05-04 01:01 | 36.80160 | 27.08861 | 418 ft | 4 kts | 59° |
| 2026-05-04 01:02 | 36.80171 | 27.08883 | 418 ft | 2 kts | 58° |
| 2026-05-04 01:02 | 36.80177 | 27.08896 | 416 ft | 1 kts | 57° |
| 2026-05-04 01:02 | 36.80180 | 27.08900 | 416 ft | 0 kts | 57° |